Terminal Aerodrome Forecast
Issued by NWS

Home | Current Version | Previous Version | Text Only | Print | Product List | Glossary On
Versions: 1 2 3 4 5 6 7 8 9 10 11 12 13 14
509
FTPA31 PHFO 101135
TAFHLI
TAF
PHLI 101135Z 1012/1112 28007KT P6SM SKC
     FM102000 10008KT P6SM SCT040
     FM110600 VRB06KT P6SM BKN040
      AMD NOT SKED=

USA.gov is the U.S. government's official web portal to all federal, state and local government web resources and services.